Time;durP1;ratioP1;P1;durP2;ratioP2;P2;SDS_P1;SDS_P2;PMS_P1;PMS_P2;Temp;Humidity;BMP_temperature;BMP_pressure;BME280_temperature;BME280_humidity;BME280_pressure;Samples;Min_cycle;Max_cycle;Signal;HPM_P1;HPM_P2
2023/10/18 00:01:23;;;;;;;;;;;16.80;55.90;;;;;;5092065;28;20010;-73
2023/10/18 00:03:48;;;;;;;;;;;16.70;55.20;;;;;;5074162;28;19967;-73
2023/10/18 00:06:18;;;;;;;;;;;16.70;55.20;;;;;;5073944;28;19927;-73
2023/10/18 00:08:45;;;;;;;;;;;16.70;56.00;;;;;;5073873;28;19931;-73
2023/10/18 00:11:11;;;;;;;;;;;16.70;55.20;;;;;;5074117;28;19920;-74
2023/10/18 00:13:37;;;;;;;;;;;16.70;55.20;;;;;;5073950;28;19965;-74
2023/10/18 00:16:04;;;;;;;;;;;16.70;55.30;;;;;;5091820;28;19931;-73
2023/10/18 00:18:29;;;;;;;;;;;16.70;55.30;;;;;;5074071;28;20329;-70
2023/10/18 00:20:59;;;;;;;;;;;16.70;55.20;;;;;;5073765;28;19927;-73
2023/10/18 00:23:25;;;;;;;;;;;16.70;55.30;;;;;;5091892;28;19986;-73
2023/10/18 00:25:51;;;;;;;;;;;16.70;55.40;;;;;;5095704;28;19920;-72
2023/10/18 00:28:16;;;;;;;;;;;16.60;55.30;;;;;;5077273;28;20452;-69
2023/10/18 00:30:42;;;;;;;;;;;16.60;55.40;;;;;;5095671;28;19971;-73
2023/10/18 00:33:07;;;;;;;;;;;16.70;55.20;;;;;;5077223;28;20379;-72
2023/10/18 00:35:36;;;;;;;;;;;17.00;54.80;;;;;;5077178;28;19931;-73
2023/10/18 00:38:03;;;;;;;;;;;17.60;53.90;;;;;;5111116;28;20340;-73
2023/10/18 00:43:25;;;;;;;;;;;18.70;51.40;;;;;;5110336;27;19923;-72
2023/10/18 00:45:51;;;;;;;;;;;19.60;49.80;;;;;;5108896;28;19953;-72
2023/10/18 00:48:22;;;;;;;;;;;20.50;47.90;;;;;;5110400;28;20336;-72
2023/10/18 00:50:52;;;;;;;;;;;21.30;46.20;;;;;;5108852;28;20256;-72
2023/10/18 00:53:20;;;;;;;;;;;22.00;44.70;;;;;;5109385;28;20003;-72
2023/10/18 00:55:47;;;;;;;;;;;22.60;43.40;;;;;;5109349;28;19920;-72
2023/10/18 00:58:15;;;;;;;;;;;23.20;42.40;;;;;;5108719;28;19927;-73
2023/10/18 01:00:41;;;;;;;;;;;23.50;41.50;;;;;;5108858;28;20264;-72
2023/10/18 01:03:09;;;;;;;;;;;23.90;40.90;;;;;;5108683;28;20010;-72
2023/10/18 01:05:35;;;;;;;;;;;24.20;40.50;;;;;;5108888;28;19978;-73
2023/10/18 01:08:06;;;;;;;;;;;24.40;40.00;;;;;;5108535;28;20291;-72
2023/10/18 01:10:33;;;;;;;;;;;24.70;39.60;;;;;;5108783;28;19926;-72
2023/10/18 01:13:00;;;;;;;;;;;24.80;39.30;;;;;;5109829;28;20095;-72
2023/10/18 01:15:28;;;;;;;;;;;24.90;39.00;;;;;;5108645;28;19927;-73
2023/10/18 01:17:54;;;;;;;;;;;25.00;39.50;;;;;;5108620;28;19938;-73
2023/10/18 01:20:40;;;;;;;;;;;25.10;38.70;;;;;;5109815;28;19931;-72
2023/10/18 01:23:07;;;;;;;;;;;25.20;38.50;;;;;;5109408;28;19931;-72
2023/10/18 01:25:34;;;;;;;;;;;25.30;38.50;;;;;;5109423;28;20386;-72
2023/10/18 01:27:59;;;;;;;;;;;25.30;38.40;;;;;;5109872;28;20065;-69
2023/10/18 01:30:25;;;;;;;;;;;25.30;38.40;;;;;;5109379;28;20363;-72
2023/10/18 01:32:51;;;;;;;;;;;25.30;38.40;;;;;;5108421;28;19920;-72
2023/10/18 01:35:16;;;;;;;;;;;25.30;38.30;;;;;;5107911;28;19920;-72
2023/10/18 01:37:43;;;;;;;;;;;25.30;38.30;;;;;;5108352;28;20036;-72
2023/10/18 01:40:41;;;;;;;;;;;25.30;38.40;;;;;;5107769;28;19985;-72
2023/10/18 01:42:56;;;;;;;;;;;25.30;38.40;;;;;;5107321;28;19924;-72
2023/10/18 01:45:22;;;;;;;;;;;25.10;38.40;;;;;;5109218;28;19967;-69
2023/10/18 01:47:49;;;;;;;;;;;25.10;38.50;;;;;;5109056;28;19920;-69
2023/10/18 01:50:18;;;;;;;;;;;25.00;38.70;;;;;;5107713;28;19959;-72
2023/10/18 01:52:44;;;;;;;;;;;24.80;38.80;;;;;;5103770;28;19927;-73
2023/10/18 01:55:12;;;;;;;;;;;24.70;38.90;;;;;;5094464;28;19924;-72
2023/10/18 01:57:39;;;;;;;;;;;24.60;39.20;;;;;;5094256;28;19920;-72
2023/10/18 02:00:05;;;;;;;;;;;24.50;39.30;;;;;;5094013;28;19928;-72
2023/10/18 02:02:32;;;;;;;;;;;24.40;39.50;;;;;;5093892;28;19924;-72
2023/10/18 02:04:58;;;;;;;;;;;24.30;39.60;;;;;;5093869;28;19924;-69
2023/10/18 02:07:24;;;;;;;;;;;24.20;39.80;;;;;;5094088;28;19943;-72
2023/10/18 02:09:52;;;;;;;;;;;24.10;39.90;;;;;;5128166;27;19931;-72
2023/10/18 02:12:19;;;;;;;;;;;24.10;40.00;;;;;;5093734;28;19974;-72
2023/10/18 02:14:45;;;;;;;;;;;24.10;40.00;;;;;;5094039;28;20382;-72
2023/10/18 02:17:10;;;;;;;;;;;24.10;40.00;;;;;;5094883;28;19927;-72
2023/10/18 02:19:37;;;;;;;;;;;24.10;39.90;;;;;;5095269;28;19920;-73
2023/10/18 02:22:07;;;;;;;;;;;24.10;39.80;;;;;;5093612;28;19924;-73
2023/10/18 02:24:33;;;;;;;;;;;24.20;39.80;;;;;;5093462;28;20365;-72
2023/10/18 02:27:00;;;;;;;;;;;24.20;39.60;;;;;;5093336;28;19920;-71
2023/10/18 02:29:27;;;;;;;;;;;24.30;39.40;;;;;;5093738;28;19920;-72
2023/10/18 02:31:57;;;;;;;;;;;24.30;39.40;;;;;;5093377;28;20015;-72
2023/10/18 02:34:25;;;;;;;;;;;24.20;39.40;;;;;;5093485;28;19924;-72
2023/10/18 02:36:52;;;;;;;;;;;24.20;39.50;;;;;;5093708;28;20398;-72
2023/10/18 02:39:22;;;;;;;;;;;24.20;39.60;;;;;;5093209;28;19920;-72
2023/10/18 02:41:49;;;;;;;;;;;24.20;39.60;;;;;;5094160;28;19930;-72
2023/10/18 02:44:21;;;;;;;;;;;24.10;39.70;;;;;;5093113;28;19920;-72
2023/10/18 02:46:49;;;;;;;;;;;24.20;39.60;;;;;;5094232;28;19927;-69
2023/10/18 02:49:14;;;;;;;;;;;24.20;39.50;;;;;;5093300;28;19928;-72
2023/10/18 02:51:40;;;;;;;;;;;24.20;39.40;;;;;;5093001;28;20018;-72
2023/10/18 02:54:16;;;;;;;;;;;24.30;39.40;;;;;;5094322;28;19943;-72
2023/10/18 02:56:43;;;;;;;;;;;24.30;39.40;;;;;;5092903;28;19964;-72
2023/10/18 02:59:09;;;;;;;;;;;24.30;39.30;;;;;;5093058;28;19999;-73
2023/10/18 03:01:40;;;;;;;;;;;24.30;39.20;;;;;;5092712;28;19924;-73
2023/10/18 03:04:14;;;;;;;;;;;24.30;39.20;;;;;;5092604;28;20383;-72
2023/10/18 03:06:40;;;;;;;;;;;24.30;39.20;;;;;;5092644;28;19930;-72
2023/10/18 03:09:18;;;;;;;;;;;24.20;39.30;;;;;;5092933;28;20431;-72
2023/10/18 03:11:44;;;;;;;;;;;24.20;39.40;;;;;;5093884;28;19920;-72
2023/10/18 03:14:12;;;;;;;;;;;24.10;39.60;;;;;;5092727;28;19930;-72
2023/10/18 03:19:18;;;;;;;;;;;23.90;39.90;;;;;;5110129;27;20290;-72
2023/10/18 03:21:48;;;;;;;;;;;23.80;39.90;;;;;;5108937;28;19927;-72
2023/10/18 03:24:14;;;;;;;;;;;23.80;40.10;;;;;;5109158;28;19942;-69
2023/10/18 03:26:40;;;;;;;;;;;23.60;41.00;;;;;;5109185;28;19931;-69
2023/10/18 03:29:11;;;;;;;;;;;23.50;40.40;;;;;;5108236;28;20003;-71
2023/10/18 03:31:42;;;;;;;;;;;23.50;40.50;;;;;;5108625;28;19948;-69
2023/10/18 03:34:14;;;;;;;;;;;23.50;40.60;;;;;;5108739;28;19920;-72
2023/10/18 03:36:54;;;;;;;;;;;23.40;40.70;;;;;;5108749;28;19966;-72
2023/10/18 03:39:21;;;;;;;;;;;23.30;40.70;;;;;;5108460;28;19963;-68
2023/10/18 03:41:49;;;;;;;;;;;23.30;40.80;;;;;;5108975;28;19920;-69
2023/10/18 03:44:21;;;;;;;;;;;23.30;40.80;;;;;;5109814;28;19920;-71
2023/10/18 03:57:38;;;;;;;;;;;23.30;40.80;;;;;;5130789;27;19918;-72
2023/10/18 04:00:28;;;;;;;;;;;23.30;40.80;;;;;;5129413;28;19920;-72
2023/10/18 04:02:53;;;;;;;;;;;23.30;40.80;;;;;;5129570;28;19926;-72
2023/10/18 04:05:52;;;;;;;;;;;23.30;40.90;;;;;;5129652;28;19919;-69
2023/10/18 04:08:04;;;;;;;;;;;23.20;40.80;;;;;;5129504;28;20021;-69
2023/10/18 04:10:31;;;;;;;;;;;23.30;40.80;;;;;;5129206;28;20354;-69
2023/10/18 04:12:56;;;;;;;;;;;23.30;40.70;;;;;;5129457;28;19924;-72
2023/10/18 04:15:23;;;;;;;;;;;23.40;40.70;;;;;;5130597;28;20428;-72
2023/10/18 04:18:02;;;;;;;;;;;23.40;40.70;;;;;;5128999;28;20435;-69
2023/10/18 04:20:31;;;;;;;;;;;23.40;40.60;;;;;;5129400;28;19919;-72
2023/10/18 04:22:57;;;;;;;;;;;23.40;40.50;;;;;;5128913;28;20367;-72
2023/10/18 04:25:30;;;;;;;;;;;23.50;40.50;;;;;;5128937;28;19927;-69
2023/10/18 04:27:57;;;;;;;;;;;23.60;40.30;;;;;;5128972;28;19959;-68
2023/10/18 04:30:24;;;;;;;;;;;23.60;40.10;;;;;;5130338;27;20367;-70
2023/10/18 04:32:59;;;;;;;;;;;23.70;40.10;;;;;;5130152;27;20290;-68
2023/10/18 04:35:25;;;;;;;;;;;23.70;40.00;;;;;;5129997;27;20015;-69
2023/10/18 04:37:53;;;;;;;;;;;23.70;40.00;;;;;;5129980;27;19920;-68
2023/10/18 04:40:26;;;;;;;;;;;23.60;40.00;;;;;;5129947;27;19927;-68
2023/10/18 04:42:54;;;;;;;;;;;23.60;40.10;;;;;;5163022;27;19920;-71
2023/10/18 04:45:23;;;;;;;;;;;23.50;40.10;;;;;;5128352;28;20397;-69
2023/10/18 04:47:49;;;;;;;;;;;23.50;40.30;;;;;;5129712;27;19919;-68
2023/10/18 04:50:19;;;;;;;;;;;23.40;40.30;;;;;;5128885;28;19919;-68
2023/10/18 04:52:47;;;;;;;;;;;23.40;40.40;;;;;;5128269;28;19919;-71
2023/10/18 04:55:14;;;;;;;;;;;23.30;40.40;;;;;;5129421;27;20355;-69
2023/10/18 04:57:40;;;;;;;;;;;23.30;40.50;;;;;;5111172;28;19931;-71
2023/10/18 05:00:24;;;;;;;;;;;23.30;40.50;;;;;;5129773;28;19924;-72
2023/10/18 05:02:52;;;;;;;;;;;23.30;40.60;;;;;;5111625;28;20241;-69
2023/10/18 05:05:17;;;;;;;;;;;23.20;40.50;;;;;;5111037;28;19920;-69
2023/10/18 05:07:47;;;;;;;;;;;23.20;40.50;;;;;;5103830;28;20197;-69
2023/10/18 05:10:14;;;;;;;;;;;23.20;40.60;;;;;;5115682;28;19919;-69
2023/10/18 05:12:49;;;;;;;;;;;23.20;40.60;;;;;;5097575;28;19942;-72
2023/10/18 05:15:21;;;;;;;;;;;23.20;40.50;;;;;;5115587;28;20291;-72
2023/10/18 05:17:48;;;;;;;;;;;23.20;40.50;;;;;;5115378;28;19924;-71
2023/10/18 05:20:41;;;;;;;;;;;23.20;40.50;;;;;;5097429;28;19920;-69
2023/10/18 05:22:59;;;;;;;;;;;23.20;40.40;;;;;;5097224;28;19919;-69
2023/10/18 05:25:30;;;;;;;;;;;23.20;40.40;;;;;;5097449;28;20393;-72
2023/10/18 05:28:09;;;;;;;;;;;23.20;40.40;;;;;;5114444;28;20358;-69
2023/10/18 05:39:07;;;;;;;;;;;22.90;40.40;;;;;;5086664;28;19934;-72
2023/10/18 05:41:45;;;;;;;;;;;22.60;40.30;;;;;;5085265;28;19921;-72
2023/10/18 05:44:12;;;;;;;;;;;22.50;40.40;;;;;;5080597;28;19920;-72
2023/10/18 05:46:39;;;;;;;;;;;22.60;40.30;;;;;;5083780;28;19928;-72
2023/10/18 05:49:40;;;;;;;;;;;22.70;40.10;;;;;;5083109;28;19946;-72
2023/10/18 05:51:51;;;;;;;;;;;22.80;39.90;;;;;;5082783;28;19966;-72
2023/10/18 05:54:19;;;;;;;;;;;23.00;39.70;;;;;;5084985;28;20364;-72
2023/10/18 05:56:49;;;;;;;;;;;23.20;39.50;;;;;;5084171;28;19967;-72
2023/10/18 05:59:27;;;;;;;;;;;23.30;39.40;;;;;;5084310;28;19921;-72
2023/10/18 06:01:57;;;;;;;;;;;23.50;39.20;;;;;;5080264;28;19920;-71
2023/10/18 06:04:24;;;;;;;;;;;23.60;39.10;;;;;;5081602;28;19920;-72
2023/10/18 06:06:51;;;;;;;;;;;23.60;39.00;;;;;;5070154;28;19929;-72
2023/10/18 06:12:03;;;;;;;;;;;23.60;39.00;;;;;;5070706;28;19986;-66
2023/10/18 06:14:44;;;;;;;;;;;23.60;39.20;;;;;;5063514;28;20829;-73
2023/10/18 06:17:19;;;;;;;;;;;23.50;39.40;;;;;;5065474;28;20250;-72
2023/10/18 06:19:45;;;;;;;;;;;23.40;39.50;;;;;;5062954;28;19921;-73
2023/10/18 06:22:43;;;;;;;;;;;23.30;39.70;;;;;;5087691;28;20007;-73
2023/10/18 06:25:00;;;;;;;;;;;23.20;40.00;;;;;;5072516;28;19926;-72
2023/10/18 06:27:25;;;;;;;;;;;23.10;40.30;;;;;;5066180;28;20540;-73
2023/10/18 06:29:53;;;;;;;;;;;23.00;40.60;;;;;;5066710;28;19925;-66
2023/10/18 06:32:22;;;;;;;;;;;22.90;40.80;;;;;;5070651;28;19932;-73
2023/10/18 06:34:49;;;;;;;;;;;22.80;41.00;;;;;;5072935;28;20040;-73
2023/10/18 06:37:20;;;;;;;;;;;22.60;40.80;;;;;;5067665;28;19963;-73
2023/10/18 06:39:47;;;;;;;;;;;22.50;40.70;;;;;;5065045;28;19924;-73
2023/10/18 06:42:12;;;;;;;;;;;22.50;40.60;;;;;;5070571;28;19924;-73
2023/10/18 06:44:40;;;;;;;;;;;22.40;40.70;;;;;;5069730;28;19927;-75
2023/10/18 06:47:06;;;;;;;;;;;22.40;41.00;;;;;;5075421;28;19924;-77
2023/10/18 06:49:32;;;;;;;;;;;22.50;41.20;;;;;;5067737;28;19931;-78
2023/10/18 06:51:57;;;;;;;;;;;22.60;41.00;;;;;;5058097;28;20415;-73
2023/10/18 06:54:30;;;;;;;;;;;22.80;40.90;;;;;;5054933;28;19932;-75
2023/10/18 06:56:57;;;;;;;;;;;22.90;40.70;;;;;;5062025;28;20019;-76
2023/10/18 06:59:27;;;;;;;;;;;22.90;40.70;;;;;;5055649;28;19927;-73
2023/10/18 07:01:54;;;;;;;;;;;22.90;40.70;;;;;;5060992;28;19920;-71
2023/10/18 07:04:27;;;;;;;;;;;22.90;40.80;;;;;;5054179;28;19931;-74
2023/10/18 07:06:52;;;;;;;;;;;23.00;40.80;;;;;;5054359;28;19924;-74
2023/10/18 07:09:25;;;;;;;;;;;23.10;40.60;;;;;;5056321;28;19927;-69
2023/10/18 07:11:57;;;;;;;;;;;23.20;40.70;;;;;;5070707;28;19929;-66
2023/10/18 07:14:24;;;;;;;;;;;23.20;40.60;;;;;;5049693;28;19929;-67
2023/10/18 07:16:54;;;;;;;;;;;23.20;40.60;;;;;;5044162;28;19929;-66
2023/10/18 07:19:29;;;;;;;;;;;23.20;40.50;;;;;;5053294;28;19925;-67
2023/10/18 07:21:56;;;;;;;;;;;23.30;40.50;;;;;;5066473;28;19957;-66
2023/10/18 07:24:24;;;;;;;;;;;23.20;40.50;;;;;;5056547;28;19924;-67
2023/10/18 07:26:53;;;;;;;;;;;23.30;40.80;;;;;;5055027;28;19971;-68
2023/10/18 07:29:20;;;;;;;;;;;23.20;40.80;;;;;;5052476;28;19956;-66
2023/10/18 07:31:46;;;;;;;;;;;23.20;40.80;;;;;;5054685;28;19925;-72
2023/10/18 07:34:17;;;;;;;;;;;23.20;41.10;;;;;;5050372;28;19927;-70
2023/10/18 07:36:44;;;;;;;;;;;23.20;41.10;;;;;;5056476;28;19924;-70
2023/10/18 07:39:11;;;;;;;;;;;23.20;41.20;;;;;;5074488;28;20330;-73
2023/10/18 07:41:37;;;;;;;;;;;23.10;41.10;;;;;;5056997;28;19933;-71
2023/10/18 07:44:06;;;;;;;;;;;23.10;41.20;;;;;;5072023;28;20581;-70
2023/10/18 07:46:34;;;;;;;;;;;23.10;41.20;;;;;;5068114;28;20614;-72
2023/10/18 07:49:15;;;;;;;;;;;23.10;41.30;;;;;;5056260;28;19924;-73
2023/10/18 07:51:48;;;;;;;;;;;23.00;41.40;;;;;;5070046;28;19924;-71
2023/10/18 07:54:15;;;;;;;;;;;22.90;41.60;;;;;;5071030;28;20370;-72
2023/10/18 07:56:48;;;;;;;;;;;22.70;41.70;;;;;;5052023;28;20256;-73
2023/10/18 07:59:31;;;;;;;;;;;22.70;42.00;;;;;;5054951;28;19939;-75
2023/10/18 08:02:12;;;;;;;;;;;22.70;42.20;;;;;;5054880;28;19963;-75
2023/10/18 08:04:40;;;;;;;;;;;22.60;42.40;;;;;;5068224;28;20659;-79
2023/10/18 08:07:10;;;;;;;;;;;22.50;42.50;;;;;;5064585;28;19971;-78
2023/10/18 08:09:39;;;;;;;;;;;22.40;42.70;;;;;;5058008;28;19924;-75
2023/10/18 08:12:06;;;;;;;;;;;22.30;43.00;;;;;;5073269;28;20007;-74
2023/10/18 08:14:32;;;;;;;;;;;22.30;43.30;;;;;;5052181;28;19962;-74
2023/10/18 08:16:58;;;;;;;;;;;22.20;43.30;;;;;;5069975;28;19950;-77
2023/10/18 08:19:24;;;;;;;;;;;22.20;43.40;;;;;;5061709;28;19932;-77
2023/10/18 08:24:49;;;;;;;;;;;22.50;42.80;;;;;;5080808;27;20693;-76
2023/10/18 08:27:15;;;;;;;;;;;22.70;42.30;;;;;;5056317;28;20074;-76
2023/10/18 08:29:42;;;;;;;;;;;22.90;42.10;;;;;;5089742;28;19924;-77
2023/10/18 08:32:14;;;;;;;;;;;22.90;41.70;;;;;;5085351;28;20681;-74
2023/10/18 08:34:42;;;;;;;;;;;23.10;41.50;;;;;;5048679;28;19925;-72
2023/10/18 08:37:11;;;;;;;;;;;23.10;41.20;;;;;;5087960;28;19956;-72
2023/10/18 08:39:39;;;;;;;;;;;23.20;41.10;;;;;;5087866;28;20388;-70
2023/10/18 08:42:08;;;;;;;;;;;23.30;40.90;;;;;;5091392;28;19973;-72
2023/10/18 08:44:35;;;;;;;;;;;23.30;40.80;;;;;;5089624;28;19963;-74
2023/10/18 08:47:12;;;;;;;;;;;23.30;40.70;;;;;;5087127;28;20400;-73
2023/10/18 08:50:00;;;;;;;;;;;23.20;41.40;;;;;;5055513;28;19933;-73
2023/10/18 08:52:28;;;;;;;;;;;23.30;40.70;;;;;;5052043;28;19921;-72
2023/10/18 08:54:54;;;;;;;;;;;23.20;40.70;;;;;;5057554;28;19929;-70
2023/10/18 08:57:35;;;;;;;;;;;23.20;40.70;;;;;;5057513;28;19939;-69
2023/10/18 09:02:49;;;;;;;;;;;23.10;40.90;;;;;;5055915;28;20628;-73
2023/10/18 09:05:15;;;;;;;;;;;23.00;41.00;;;;;;5085239;28;20540;-73
2023/10/18 09:07:44;;;;;;;;;;;23.00;41.00;;;;;;5070881;28;19939;-70
2023/10/18 09:10:13;;;;;;;;;;;23.00;41.00;;;;;;5051423;28;20458;-73
2023/10/18 09:15:35;;;;;;;;;;;23.00;41.10;;;;;;5090228;27;19926;-72
2023/10/18 09:18:03;;;;;;;;;;;23.00;41.30;;;;;;5121145;27;20410;-73
2023/10/18 09:20:29;;;;;;;;;;;22.90;41.30;;;;;;5087868;28;19924;-73
2023/10/18 09:23:01;;;;;;;;;;;22.90;41.50;;;;;;5090804;28;19920;-74
2023/10/18 09:25:28;;;;;;;;;;;22.70;41.70;;;;;;5122066;27;19971;-72
2023/10/18 09:28:08;;;;;;;;;;;22.60;42.10;;;;;;5088467;28;20730;-71
2023/10/18 09:30:35;;;;;;;;;;;22.60;42.40;;;;;;5085743;28;19928;-74
2023/10/18 09:33:01;;;;;;;;;;;22.50;42.40;;;;;;5090916;28;20009;-75
2023/10/18 09:35:27;;;;;;;;;;;22.50;42.50;;;;;;5089683;28;19963;-73
2023/10/18 09:37:53;;;;;;;;;;;22.50;42.50;;;;;;5095298;28;20364;-72
2023/10/18 09:40:18;;;;;;;;;;;22.60;42.40;;;;;;5093918;28;20272;-73
2023/10/18 09:42:44;;;;;;;;;;;22.60;42.40;;;;;;5085117;28;20197;-71
2023/10/18 09:45:10;;;;;;;;;;;22.50;42.40;;;;;;5080195;28;19966;-71
2023/10/18 09:47:36;;;;;;;;;;;22.50;42.40;;;;;;5085670;28;21034;-70
2023/10/18 09:50:06;;;;;;;;;;;22.60;42.40;;;;;;5089680;28;19932;-68
2023/10/18 09:52:32;;;;;;;;;;;22.60;42.30;;;;;;5087016;28;20423;-71
2023/10/18 09:55:00;;;;;;;;;;;22.60;42.20;;;;;;5089303;28;19928;-73
2023/10/18 09:57:33;;;;;;;;;;;22.60;42.20;;;;;;5094419;28;20015;-76
2023/10/18 10:00:01;;;;;;;;;;;22.60;42.20;;;;;;5096183;28;19930;-72
2023/10/18 10:02:27;;;;;;;;;;;22.60;42.20;;;;;;5112199;27;19923;-75
2023/10/18 10:04:54;;;;;;;;;;;22.60;42.20;;;;;;5076295;28;19935;-75
2023/10/18 10:07:50;;;;;;;;;;;22.60;42.20;;;;;;5083541;28;19942;-74
2023/10/18 10:10:07;;;;;;;;;;;22.70;42.30;;;;;;5092478;28;20450;-74
2023/10/18 10:12:34;;;;;;;;;;;22.70;42.20;;;;;;5086688;28;20609;-74
2023/10/18 10:14:59;;;;;;;;;;;22.70;42.20;;;;;;5083908;28;20451;-74
2023/10/18 10:17:28;;;;;;;;;;;22.60;42.30;;;;;;5089181;28;19981;-74
2023/10/18 10:19:57;;;;;;;;;;;22.60;42.40;;;;;;5085463;28;20342;-74
2023/10/18 10:22:25;;;;;;;;;;;22.50;42.50;;;;;;5087556;28;19934;-70
2023/10/18 10:24:59;;;;;;;;;;;22.50;42.60;;;;;;5092121;28;19931;-72
2023/10/18 10:27:27;;;;;;;;;;;22.50;42.60;;;;;;5102730;27;19978;-71
2023/10/18 10:29:57;;;;;;;;;;;22.50;42.80;;;;;;5072123;28;19931;-72
2023/10/18 10:32:24;;;;;;;;;;;22.40;42.70;;;;;;5099803;27;19977;-73
2023/10/18 10:35:10;;;;;;;;;;;22.50;42.70;;;;;;5078821;28;19970;-72
2023/10/18 10:37:45;;;;;;;;;;;22.50;42.70;;;;;;5078122;28;19928;-72
2023/10/18 10:43:01;;;;;;;;;;;22.60;42.30;;;;;;5084816;28;19942;-72
2023/10/18 10:51:06;;;;;;;;;;;22.60;42.10;;;;;;5105347;27;19930;-71
2023/10/18 10:53:43;;;;;;;;;;;22.70;42.10;;;;;;5102088;28;19952;-72
2023/10/18 10:56:17;;;;;;;;;;;22.70;42.00;;;;;;5112189;28;19931;-71
2023/10/18 10:58:47;;;;;;;;;;;22.70;42.00;;;;;;5097253;28;20054;-72
2023/10/18 11:01:13;;;;;;;;;;;22.80;42.00;;;;;;5101171;28;20386;-72
2023/10/18 11:03:53;;;;;;;;;;;22.90;41.90;;;;;;5101745;28;19946;-72
2023/10/18 11:06:21;;;;;;;;;;;22.90;41.80;;;;;;5124483;27;19920;-72
2023/10/18 11:08:46;;;;;;;;;;;22.90;41.70;;;;;;5098473;28;19928;-72
2023/10/18 11:11:13;;;;;;;;;;;22.90;41.60;;;;;;5110147;28;19982;-72
2023/10/18 11:13:41;;;;;;;;;;;22.90;41.60;;;;;;5110506;28;19920;-72
2023/10/18 11:16:07;;;;;;;;;;;22.90;41.60;;;;;;5109229;28;19960;-72
2023/10/18 11:18:39;;;;;;;;;;;22.90;41.60;;;;;;5101862;28;20803;-73
2023/10/18 11:21:05;;;;;;;;;;;22.90;41.70;;;;;;5095494;28;20014;-73
2023/10/18 11:23:33;;;;;;;;;;;22.90;41.70;;;;;;5115659;28;20003;-73
2023/10/18 11:25:59;;;;;;;;;;;22.80;41.70;;;;;;5101917;28;20027;-73
2023/10/18 11:28:32;;;;;;;;;;;22.70;41.80;;;;;;5095965;28;19924;-73
2023/10/18 11:31:00;;;;;;;;;;;22.70;41.80;;;;;;5091388;28;19925;-72
2023/10/18 11:33:46;;;;;;;;;;;22.60;42.00;;;;;;5089188;28;20432;-73
2023/10/18 11:36:13;;;;;;;;;;;22.60;42.00;;;;;;5099840;28;20372;-73
2023/10/18 11:38:38;;;;;;;;;;;22.50;41.90;;;;;;5090165;28;20009;-73
2023/10/18 11:41:11;;;;;;;;;;;22.50;42.00;;;;;;5094170;28;20533;-72
2023/10/18 11:43:40;;;;;;;;;;;22.50;42.10;;;;;;5095974;28;20007;-72
2023/10/18 11:46:06;;;;;;;;;;;22.50;42.10;;;;;;5097319;28;20572;-73
2023/10/18 11:48:33;;;;;;;;;;;22.50;42.10;;;;;;5094390;28;19924;-73
2023/10/18 11:50:58;;;;;;;;;;;22.40;42.10;;;;;;5113604;28;19927;-72
2023/10/18 11:53:26;;;;;;;;;;;22.40;42.10;;;;;;5112771;28;20159;-73
2023/10/18 11:55:55;;;;;;;;;;;22.40;42.00;;;;;;5097802;28;19920;-73
2023/10/18 11:58:23;;;;;;;;;;;22.50;42.00;;;;;;5112896;28;20335;-73
2023/10/18 12:00:49;;;;;;;;;;;22.50;42.00;;;;;;5090284;28;19934;-73
2023/10/18 12:03:15;;;;;;;;;;;22.50;41.90;;;;;;5079459;28;19920;-73
2023/10/18 12:05:42;;;;;;;;;;;22.60;41.90;;;;;;5081628;28;20007;-73
2023/10/18 12:08:12;;;;;;;;;;;22.60;41.80;;;;;;5080095;28;20390;-74
2023/10/18 12:10:38;;;;;;;;;;;22.60;41.80;;;;;;5080381;28;19967;-73
2023/10/18 12:13:12;;;;;;;;;;;22.60;42.60;;;;;;5079814;28;20355;-73
2023/10/18 12:15:37;;;;;;;;;;;22.60;41.90;;;;;;5102393;28;19965;-74
2023/10/18 12:18:04;;;;;;;;;;;22.50;41.90;;;;;;5104490;28;19927;-74
2023/10/18 12:20:43;;;;;;;;;;;22.50;42.00;;;;;;5085057;28;19991;-74
2023/10/18 12:23:12;;;;;;;;;;;22.40;42.10;;;;;;5091849;28;19927;-73
2023/10/18 12:25:38;;;;;;;;;;;22.40;42.30;;;;;;5085315;28;20014;-73
2023/10/18 12:28:11;;;;;;;;;;;22.30;42.40;;;;;;5090650;28;19927;-73
2023/10/18 12:30:38;;;;;;;;;;;22.30;42.50;;;;;;5095484;28;20363;-72
2023/10/18 12:33:06;;;;;;;;;;;22.20;42.60;;;;;;5095856;28;19930;-73
2023/10/18 12:35:32;;;;;;;;;;;22.10;42.70;;;;;;5113919;28;19919;-73
2023/10/18 12:37:57;;;;;;;;;;;22.00;42.90;;;;;;5097618;27;20023;-74
2023/10/18 12:43:13;;;;;;;;;;;21.80;43.20;;;;;;5095732;28;19941;-74
2023/10/18 12:45:42;;;;;;;;;;;21.70;43.40;;;;;;5116656;27;20387;-74
2023/10/18 12:48:09;;;;;;;;;;;21.50;43.60;;;;;;5081594;28;19927;-74
2023/10/18 12:50:35;;;;;;;;;;;21.40;43.90;;;;;;5081301;28;19924;-74
2023/10/18 12:53:17;;;;;;;;;;;21.30;44.20;;;;;;5080697;28;19978;-74
2023/10/18 12:55:44;;;;;;;;;;;21.20;44.40;;;;;;5087970;28;19920;-74
2023/10/18 12:58:18;;;;;;;;;;;21.00;44.50;;;;;;5095279;28;20027;-74
2023/10/18 13:00:45;;;;;;;;;;;20.90;44.60;;;;;;5093273;28;20005;-74
2023/10/18 13:05:53;;;;;;;;;;;20.80;45.70;;;;;;5109168;27;19969;-74
2023/10/18 13:08:22;;;;;;;;;;;20.70;45.00;;;;;;5105120;28;19927;-74
2023/10/18 13:11:00;;;;;;;;;;;20.60;45.10;;;;;;5108194;28;19989;-74
2023/10/18 13:13:30;;;;;;;;;;;20.60;45.30;;;;;;5106514;28;19993;-74
2023/10/18 13:15:57;;;;;;;;;;;20.60;45.30;;;;;;5107727;28;19920;-75
2023/10/18 13:18:25;;;;;;;;;;;20.50;45.40;;;;;;5087796;28;19946;-75
2023/10/18 13:20:55;;;;;;;;;;;20.50;46.20;;;;;;5119529;28;19920;-75
2023/10/18 13:23:21;;;;;;;;;;;20.50;45.60;;;;;;5119859;28;19928;-75
2023/10/18 13:25:51;;;;;;;;;;;20.40;45.60;;;;;;5120694;28;19989;-75
2023/10/18 13:28:26;;;;;;;;;;;20.40;45.70;;;;;;5088210;28;19926;-74
2023/10/18 13:30:53;;;;;;;;;;;20.40;45.80;;;;;;5086793;28;20362;-74
2023/10/18 13:33:18;;;;;;;;;;;20.30;45.80;;;;;;5120736;28;19967;-74
2023/10/18 13:35:45;;;;;;;;;;;20.30;45.90;;;;;;5121120;28;19979;-74
2023/10/18 13:38:11;;;;;;;;;;;20.20;46.00;;;;;;5087542;28;19948;-74
2023/10/18 13:40:37;;;;;;;;;;;20.10;46.00;;;;;;5085336;28;20299;-74
2023/10/18 13:43:03;;;;;;;;;;;20.10;46.00;;;;;;5087099;28;19921;-75
2023/10/18 13:45:29;;;;;;;;;;;20.00;46.10;;;;;;5119559;28;19964;-74
2023/10/18 13:47:58;;;;;;;;;;;20.00;46.20;;;;;;5121152;28;20387;-74
2023/10/18 13:50:25;;;;;;;;;;;19.90;46.30;;;;;;5120112;28;19932;-74
2023/10/18 13:52:50;;;;;;;;;;;19.90;46.50;;;;;;5120094;28;19975;-73
2023/10/18 13:55:18;;;;;;;;;;;19.80;46.60;;;;;;5120203;28;19970;-74
2023/10/18 13:57:45;;;;;;;;;;;19.80;46.70;;;;;;5086177;28;19920;-74
2023/10/18 14:00:14;;;;;;;;;;;19.70;46.70;;;;;;5120198;28;19927;-74
2023/10/18 14:02:40;;;;;;;;;;;19.70;46.90;;;;;;5101390;28;19985;-75
2023/10/18 14:05:07;;;;;;;;;;;19.60;47.00;;;;;;5105834;28;20481;-75
2023/10/18 14:07:35;;;;;;;;;;;19.60;47.00;;;;;;5106286;28;20341;-74
2023/10/18 14:10:07;;;;;;;;;;;19.50;47.10;;;;;;5104794;28;19947;-74
2023/10/18 14:12:35;;;;;;;;;;;19.50;47.20;;;;;;5104926;28;19941;-74
2023/10/18 14:15:00;;;;;;;;;;;19.50;47.30;;;;;;5103974;28;19926;-74
2023/10/18 14:17:27;;;;;;;;;;;19.40;47.40;;;;;;5082642;28;20432;-75
2023/10/18 14:19:52;;;;;;;;;;;19.40;47.50;;;;;;5070398;28;20326;-75
2023/10/18 14:22:18;;;;;;;;;;;19.30;47.50;;;;;;5105368;28;19920;-75
2023/10/18 14:24:44;;;;;;;;;;;19.30;47.60;;;;;;5106127;28;20414;-74
2023/10/18 14:27:09;;;;;;;;;;;19.30;47.70;;;;;;5106918;28;19966;-74
2023/10/18 14:29:35;;;;;;;;;;;19.20;47.80;;;;;;5106871;28;20395;-74
2023/10/18 14:32:02;;;;;;;;;;;19.20;47.90;;;;;;5072915;28;19928;-74
2023/10/18 14:34:28;;;;;;;;;;;19.20;48.00;;;;;;5106285;28;20271;-74
2023/10/18 14:36:53;;;;;;;;;;;19.20;48.10;;;;;;5105682;28;19999;-74
2023/10/18 14:39:22;;;;;;;;;;;19.10;48.00;;;;;;5072005;28;19974;-74
2023/10/18 14:41:47;;;;;;;;;;;19.10;48.10;;;;;;5106013;28;19924;-74
2023/10/18 14:44:12;;;;;;;;;;;19.10;48.30;;;;;;5106058;28;20276;-74
2023/10/18 14:46:41;;;;;;;;;;;19.10;48.30;;;;;;5072938;28;20023;-74
2023/10/18 14:49:07;;;;;;;;;;;19.10;48.30;;;;;;5106220;28;19920;-74
2023/10/18 14:51:33;;;;;;;;;;;19.10;48.30;;;;;;5071969;28;19964;-74
2023/10/18 14:53:59;;;;;;;;;;;19.10;48.30;;;;;;5071996;28;20375;-74
2023/10/18 14:56:24;;;;;;;;;;;19.00;48.30;;;;;;5105742;28;19924;-74
2023/10/18 14:58:50;;;;;;;;;;;19.00;48.30;;;;;;5105482;28;19925;-75
2023/10/18 15:01:17;;;;;;;;;;;19.00;48.30;;;;;;5073139;28;20291;-74
2023/10/18 15:03:45;;;;;;;;;;;19.00;48.50;;;;;;5108595;28;20684;-74
2023/10/18 15:06:16;;;;;;;;;;;19.00;48.50;;;;;;5075708;28;20425;-74
2023/10/18 15:08:42;;;;;;;;;;;18.90;48.50;;;;;;5075631;28;20052;-75
2023/10/18 15:11:10;;;;;;;;;;;18.90;48.50;;;;;;5109702;28;20022;-74
2023/10/18 15:13:37;;;;;;;;;;;18.90;48.60;;;;;;5075012;28;19920;-75
2023/10/18 15:16:05;;;;;;;;;;;18.90;48.70;;;;;;5092602;28;19927;-75